Time;durP1;ratioP1;P1;durP2;ratioP2;P2;SDS_P1;SDS_P2;PMS_P1;PMS_P2;Temp;Humidity;BMP_temperature;BMP_pressure;BME280_temperature;BME280_humidity;BME280_pressure;Samples;Min_cycle;Max_cycle;Signal;HPM_P1;HPM_P2
2021/03/11 00:00:42;;;;;;;12.68;8.27;;;;;;;1.62;70.96;95061.28;5104959;28;20984;-73
2021/03/11 00:03:15;;;;;;;13.52;8.68;;;;;;;1.43;71.42;95069.78;5093742;28;20202;-73
2021/03/11 00:05:42;;;;;;;12.25;8.80;;;;;;;1.45;71.56;95067.81;5104344;28;20226;-74
2021/03/11 00:08:09;;;;;;;11.27;8.80;;;;;;;1.52;71.11;95063.44;5093647;28;20199;-73
2021/03/11 00:10:36;;;;;;;11.30;8.60;;;;;;;1.55;70.72;95052.75;5104524;28;20660;-74
2021/03/11 00:13:05;;;;;;;12.90;9.00;;;;;;;1.51;70.83;95074.78;5093749;28;20226;-70
2021/03/11 00:15:33;;;;;;;12.25;8.55;;;;;;;1.60;70.20;95071.03;5104282;28;20191;-73
2021/03/11 00:17:59;;;;;;;12.55;9.00;;;;;;;1.54;70.76;95082.94;5093418;28;20211;-73
2021/03/11 00:20:28;;;;;;;13.88;8.93;;;;;;;1.62;70.54;95066.47;5104029;28;20204;-72
2021/03/11 00:22:55;;;;;;;12.95;8.82;;;;;;;1.60;70.17;95071.03;5093805;28;20273;-72
2021/03/11 00:25:24;;;;;;;11.00;8.40;;;;;;;1.45;70.47;95075.56;5103168;28;20211;-74
2021/03/11 00:27:51;;;;;;;12.68;8.40;;;;;;;1.50;70.70;95075.75;5093305;28;20225;-73
2021/03/11 00:30:21;;;;;;;12.73;8.95;;;;;;;1.34;70.94;95076.13;5102431;28;20194;-74
2021/03/11 00:32:48;;;;;;;10.45;8.32;;;;;;;1.41;71.20;95079.50;5093599;28;20195;-74
2021/03/11 00:35:15;;;;;;;15.38;8.25;;;;;;;1.55;70.13;95076.00;5102081;28;20190;-74
2021/03/11 00:37:42;;;;;;;11.63;8.73;;;;;;;1.29;71.39;95070.75;5094248;28;20577;-74
2021/03/11 00:40:11;;;;;;;11.55;8.68;;;;;;;1.27;71.30;95065.78;5100276;28;20202;-72
2021/03/11 00:42:37;;;;;;;15.55;8.48;;;;;;;1.19;71.99;95057.44;5094954;27;20549;-75
2021/03/11 00:45:05;;;;;;;11.63;8.57;;;;;;;1.17;71.83;95069.72;5098987;28;20206;-73
2021/03/11 00:47:32;;;;;;;12.50;8.48;;;;;;;1.29;72.08;95070.75;5095799;28;20688;-74
2021/03/11 00:50:00;;;;;;;13.48;8.98;;;;;;;1.06;72.50;95062.53;5099670;28;20194;-71
2021/03/11 00:52:27;;;;;;;12.95;8.50;;;;;;;0.97;73.14;95060.09;5095303;28;20573;-74
2021/03/11 00:54:53;;;;;;;12.02;8.85;;;;;;;0.94;72.93;95060.50;5097320;28;20228;-71
2021/03/11 00:57:21;;;;;;;11.35;7.88;;;;;;;0.88;72.66;95065.63;5096862;28;20290;-72
2021/03/11 00:59:47;;;;;;;15.10;8.60;;;;;;;0.65;72.85;95071.06;5097923;28;20220;-72
2021/03/11 01:02:14;;;;;;;12.88;8.15;;;;;;;0.70;73.03;95065.31;5096431;28;20238;-72
2021/03/11 01:04:41;;;;;;;13.10;8.77;;;;;;;0.81;72.71;95070.75;5096565;28;20199;-73
2021/03/11 01:07:08;;;;;;;12.55;8.95;;;;;;;0.85;72.53;95066.81;5098428;28;20202;-73
2021/03/11 01:09:35;;;;;;;12.02;8.50;;;;;;;0.89;72.27;95077.53;5094467;28;20230;-73
2021/03/11 01:12:02;;;;;;;13.55;9.13;;;;;;;1.06;72.34;95062.53;5099854;28;20279;-73
2021/03/11 01:14:28;;;;;;;13.70;9.25;;;;;;;1.09;71.48;95062.94;5095001;28;20231;-71
2021/03/11 01:16:55;;;;;;;12.65;9.15;;;;;;;0.80;71.98;95064.00;5101238;28;20256;-72
2021/03/11 01:19:21;;;;;;;15.18;9.43;;;;;;;0.83;72.28;95062.81;5095550;28;20580;-74
2021/03/11 01:21:48;;;;;;;13.68;9.00;;;;;;;0.91;72.14;95060.88;5100721;28;20673;-70
2021/03/11 01:24:16;;;;;;;15.00;9.48;;;;;;;0.93;72.22;95058.91;5094317;28;20194;-71
2021/03/11 01:26:43;;;;;;;15.50;9.70;;;;;;;1.12;71.39;95061.75;5100744;28;20253;-71
2021/03/11 01:29:09;;;;;;;13.18;9.13;;;;;;;0.65;72.17;95050.44;5094266;28;20206;-71
2021/03/11 01:31:35;;;;;;;13.40;9.73;;;;;;;0.73;72.12;95073.47;5099953;28;20291;-72
2021/03/11 01:34:02;;;;;;;12.13;9.02;;;;;;;0.50;72.82;95072.16;5094060;28;20226;-70
2021/03/11 01:36:28;;;;;;;14.50;9.88;;;;;;;0.83;72.46;95068.78;5100765;28;20203;-72
2021/03/11 01:38:55;;;;;;;13.15;9.43;;;;;;;0.92;72.23;95072.00;5093850;28;20270;-73
2021/03/11 01:41:21;;;;;;;12.95;8.82;;;;;;;0.99;72.12;95078.78;5100228;28;20217;-73
2021/03/11 01:43:48;;;;;;;12.73;8.30;;;;;;;0.61;71.85;95074.19;5093218;28;20190;-73
2021/03/11 01:46:15;;;;;;;11.90;8.57;;;;;;;0.66;72.32;95067.50;5100731;28;20191;-74
2021/03/11 01:48:42;;;;;;;11.95;8.23;;;;;;;0.82;71.57;95074.13;5092648;28;20199;-72
2021/03/11 01:51:08;;;;;;;13.75;8.50;;;;;;;0.72;71.88;95084.78;5101226;28;20840;-71
2021/03/11 01:53:35;;;;;;;11.55;8.32;;;;;;;0.48;72.53;95077.50;5091889;28;20215;-74
2021/03/11 01:56:02;;;;;;;13.07;9.32;;;;;;;0.65;72.18;95083.16;5091022;28;20644;-73
2021/03/11 01:58:28;;;;;;;12.15;8.45;;;;;;;0.80;71.67;95086.44;5090991;28;20215;-72
2021/03/11 02:00:55;;;;;;;13.07;8.35;;;;;;;0.51;72.53;95077.13;5090883;28;20202;-72
2021/03/11 02:03:22;;;;;;;12.15;8.88;;;;;;;0.67;71.97;95076.84;5090627;28;20191;-72
2021/03/11 02:05:49;;;;;;;13.38;9.13;;;;;;;0.71;72.46;95079.84;5090498;28;20253;-73
2021/03/11 02:08:16;;;;;;;12.93;9.27;;;;;;;0.97;71.67;95072.19;5091165;28;20207;-74
2021/03/11 02:10:43;;;;;;;12.68;8.90;;;;;;;0.91;71.50;95066.03;5090096;28;20210;-75
2021/03/11 02:13:28;;;;;;;12.82;8.80;;;;;;;0.88;71.35;95070.78;5090790;28;20252;-73
2021/03/11 02:16:19;;;;;;;14.07;8.98;;;;;;;0.75;71.61;95068.94;5101782;28;20275;-73
2021/03/11 02:19:32;;;;;;;13.85;9.07;;;;;;;0.75;71.21;95068.13;5092287;28;20207;-74
2021/03/11 02:22:16;;;;;;;14.15;8.63;;;;;;;1.20;70.03;95080.44;5062364;28;20217;-71
2021/03/11 02:25:14;;;;;;;14.73;8.50;;;;;;;0.99;70.24;95078.78;5097317;28;20308;-70
2021/03/11 02:28:10;;;;;;;12.55;8.48;;;;;;;0.83;70.63;95089.41;5092609;28;20229;-73
2021/03/11 02:30:37;;;;;;;12.38;8.40;;;;;;;1.02;70.74;95090.50;5102179;28;20198;-75
2021/03/11 02:33:07;;;;;;;12.30;8.75;;;;;;;1.08;70.20;95092.28;5090399;28;20191;-75
2021/03/11 02:35:37;;;;;;;11.35;8.23;;;;;;;0.94;70.36;95091.47;5101962;28;20198;-72
2021/03/11 02:38:10;;;;;;;13.13;8.70;;;;;;;1.14;70.33;95098.47;5090546;28;20195;-71
2021/03/11 02:40:38;;;;;;;12.15;7.90;;;;;;;0.90;70.61;95102.34;5100162;28;20210;-75
2021/03/11 02:43:11;;;;;;;11.48;8.80;;;;;;;1.13;70.43;95095.13;5090589;28;20205;-72
2021/03/11 02:45:39;;;;;;;11.95;8.70;;;;;;;0.84;70.64;95101.31;5101603;28;20289;-72
2021/03/11 02:48:08;;;;;;;11.85;8.40;;;;;;;0.94;70.09;95100.97;5090245;28;20183;-73
2021/03/11 02:50:37;;;;;;;12.80;8.57;;;;;;;0.99;69.29;95107.16;5101561;28;20272;-75
2021/03/11 02:53:08;;;;;;;11.73;8.45;;;;;;;0.94;70.52;95108.72;5090081;28;20199;-72
2021/03/11 02:55:36;;;;;;;11.57;8.55;;;;;;;0.58;70.35;95108.09;5101753;28;20206;-73
2021/03/11 02:58:06;;;;;;;11.13;7.95;;;;;;;0.64;70.76;95121.03;5090450;28;20274;-75
2021/03/11 03:00:37;;;;;;;12.27;8.55;;;;;;;0.92;70.06;95129.53;5101384;28;20226;-74
2021/03/11 03:03:07;;;;;;;10.57;7.47;;;;;;;0.52;70.44;95126.91;5089978;28;20199;-74
2021/03/11 03:05:34;;;;;;;11.75;8.55;;;;;;;0.90;69.88;95131.50;5101229;28;20253;-76
2021/03/11 03:08:03;;;;;;;11.80;8.50;;;;;;;0.94;69.95;95114.69;5090287;28;20780;-76
2021/03/11 03:10:31;;;;;;;9.98;7.90;;;;;;;0.89;70.08;95104.13;5101239;28;20202;-74
2021/03/11 03:13:02;;;;;;;10.95;8.73;;;;;;;1.17;69.71;95123.91;5092789;28;20197;-74
2021/03/11 03:15:29;;;;;;;11.60;8.00;;;;;;;1.07;69.69;95131.19;5104894;28;20262;-75
2021/03/11 03:17:57;;;;;;;10.05;7.63;;;;;;;1.28;68.43;95131.88;5090429;28;20202;-73
2021/03/11 03:20:26;;;;;;;10.07;6.95;;;;;;;1.18;67.72;95133.22;5100321;28;20226;-72
2021/03/11 03:22:53;;;;;;;7.65;5.28;;;;;;;1.22;66.75;95129.28;5090574;28;20586;-75
2021/03/11 03:25:37;;;;;;;6.80;4.25;;;;;;;1.34;66.65;95143.22;5100897;28;20190;-74
2021/03/11 03:28:03;;;;;;;6.05;3.80;;;;;;;1.36;65.45;95141.25;5090186;28;20677;-73
2021/03/11 03:30:31;;;;;;;511.13;223.20;;;;;;;1.16;63.72;95136.00;5100839;28;20208;-74
2021/03/11 03:32:57;;;;;;;21.15;10.10;;;;;;;1.23;64.46;95130.88;5090073;28;20669;-74
2021/03/11 03:35:24;;;;;;;5.25;3.40;;;;;;;1.20;64.08;95136.44;5099970;28;20214;-72
2021/03/11 03:37:51;;;;;;;3.55;2.70;;;;;;;1.21;63.16;95135.44;5090543;28;20678;-75
2021/03/11 03:40:20;;;;;;;4.07;3.00;;;;;;;1.26;64.76;95151.16;5099486;28;20205;-74
2021/03/11 03:42:55;;;;;;;5.53;3.80;;;;;;;1.42;64.34;95140.50;5091120;28;20214;-72
2021/03/11 03:45:26;;;;;;;5.18;3.70;;;;;;;1.19;63.56;95134.84;5099719;28;20281;-71
2021/03/11 03:48:01;;;;;;;5.07;3.50;;;;;;;1.18;63.01;95133.22;5090181;28;20294;-72
2021/03/11 03:50:29;;;;;;;5.65;4.20;;;;;;;0.99;63.91;95122.63;5100560;28;20195;-75
2021/03/11 03:52:57;;;;;;;7.00;4.88;;;;;;;1.04;65.39;95151.22;5090045;28;20285;-74
2021/03/11 03:55:27;;;;;;;8.20;6.10;;;;;;;1.04;66.38;95132.38;5100266;28;20291;-75
2021/03/11 03:57:56;;;;;;;6.57;4.97;;;;;;;0.82;66.78;95152.28;5090158;28;20210;-74
2021/03/11 04:00:27;;;;;;;7.00;5.20;;;;;;;1.06;66.11;95139.94;5100784;28;20198;-74
2021/03/11 04:02:55;;;;;;;7.97;5.60;;;;;;;1.07;66.39;95136.34;5091917;28;20195;-76
2021/03/11 04:05:22;;;;;;;7.70;4.78;;;;;;;1.28;64.62;95144.78;5100022;28;20653;-75
2021/03/11 04:07:52;;;;;;;6.07;4.80;;;;;;;1.32;64.69;95147.78;5090431;28;20203;-75
2021/03/11 04:10:19;;;;;;;7.32;4.90;;;;;;;1.31;65.62;95148.78;5099128;28;20198;-76
2021/03/11 04:12:47;;;;;;;6.38;4.57;;;;;;;1.32;65.43;95155.53;5091258;28;20612;-73
2021/03/11 04:15:16;;;;;;;7.40;4.20;;;;;;;1.21;64.52;95140.59;5099514;28;20227;-72
2021/03/11 04:17:44;;;;;;;5.00;3.95;;;;;;;1.30;64.82;95165.25;5094491;27;20298;-71
2021/03/11 04:20:11;;;;;;;13.13;8.82;;;;;;;1.21;63.77;95163.81;5101512;28;20205;-70
2021/03/11 04:22:40;;;;;;;6.40;4.60;;;;;;;1.22;64.14;95160.25;5095246;28;20603;-72
2021/03/11 04:25:07;;;;;;;6.32;4.03;;;;;;;1.24;63.45;95168.63;5100803;28;20190;-75
2021/03/11 04:27:34;;;;;;;5.25;3.85;;;;;;;1.32;63.47;95165.84;5096122;28;20197;-73
2021/03/11 04:30:02;;;;;;;6.22;4.45;;;;;;;1.21;63.85;95181.88;5100026;28;20190;-74
2021/03/11 04:32:29;;;;;;;6.15;4.25;;;;;;;1.23;64.62;95177.31;5096535;28;20222;-73
2021/03/11 04:34:56;;;;;;;7.65;4.85;;;;;;;1.24;63.85;95174.56;5098840;28;20259;-74
2021/03/11 04:37:22;;;;;;;5.70;3.88;;;;;;;1.27;63.74;95188.88;5097445;28;20752;-73
2021/03/11 04:39:49;;;;;;;5.72;4.00;;;;;;;1.09;63.62;95180.84;5098428;28;20195;-72
2021/03/11 04:42:17;;;;;;;5.85;3.90;;;;;;;0.95;64.69;95180.75;5098415;28;20195;-76
2021/03/11 04:44:46;;;;;;;5.97;3.70;;;;;;;0.99;65.05;95197.44;5095878;28;20226;-73
2021/03/11 04:47:12;;;;;;;5.22;3.63;;;;;;;1.11;64.16;95195.16;5098691;28;20211;-73
2021/03/11 04:49:40;;;;;;;4.97;3.70;;;;;;;1.09;64.45;95191.97;5096859;28;20203;-72
2021/03/11 04:52:08;;;;;;;5.68;3.58;;;;;;;1.02;64.44;95191.91;5099546;28;20210;-73
2021/03/11 04:54:35;;;;;;;4.50;3.30;;;;;;;1.10;64.96;95208.22;5095752;28;20314;-72
2021/03/11 04:57:02;;;;;;;4.20;3.00;;;;;;;1.00;64.33;95201.63;5100302;28;20203;-73
2021/03/11 04:59:30;;;;;;;3.60;2.63;;;;;;;0.83;64.56;95196.94;5095688;28;20265;-74
2021/03/11 05:01:58;;;;;;;5.53;3.58;;;;;;;1.00;64.67;95201.63;5102397;28;20712;-71
2021/03/11 05:04:25;;;;;;;5.28;3.40;;;;;;;1.08;63.83;95202.47;5097210;28;20718;-72
2021/03/11 05:06:52;;;;;;;6.68;3.95;;;;;;;1.08;63.43;95205.06;5112451;28;20602;-72
2021/03/11 05:09:18;;;;;;;6.18;3.85;;;;;;;1.18;64.03;95210.66;5109205;28;20277;-70
2021/03/11 05:11:45;;;;;;;4.50;2.70;;;;;;;1.13;63.23;95213.03;5096374;27;20247;-72
2021/03/11 05:14:11;;;;;;;4.80;2.85;;;;;;;1.19;62.88;95217.44;5112267;28;20309;-72
2021/03/11 05:16:38;;;;;;;4.57;3.50;;;;;;;1.18;63.45;95220.97;5111397;28;20212;-72
2021/03/11 05:19:04;;;;;;;4.38;2.58;;;;;;;1.23;62.58;95209.09;5091753;28;20572;-73
2021/03/11 05:21:32;;;;;;;4.65;2.80;;;;;;;1.15;63.84;95226.53;5091036;28;20530;-72
2021/03/11 05:23:59;;;;;;;4.57;2.65;;;;;;;1.04;64.11;95226.06;5091702;28;20203;-71
2021/03/11 05:26:28;;;;;;;5.25;2.92;;;;;;;0.97;64.72;95214.91;5104110;28;20221;-71
2021/03/11 05:28:55;;;;;;;3.85;2.80;;;;;;;1.15;64.68;95236.84;5111810;28;20193;-74
2021/03/11 05:31:21;;;;;;;5.35;2.90;;;;;;;1.15;63.88;95231.69;5093135;28;20302;-72
2021/03/11 05:33:48;;;;;;;5.38;3.35;;;;;;;1.28;64.64;95237.72;5091624;28;20218;-72
2021/03/11 05:36:15;;;;;;;4.82;3.40;;;;;;;1.20;63.74;95244.81;5090753;28;20172;-76
2021/03/11 05:38:46;;;;;;;6.30;3.70;;;;;;;1.09;63.56;95216.97;5101084;28;20663;-74
2021/03/11 05:41:16;;;;;;;5.35;3.45;;;;;;;1.29;63.21;95238.53;5092935;28;20720;-72
2021/03/11 05:43:42;;;;;;;3.30;2.40;;;;;;;1.10;62.38;95236.59;5100394;28;20221;-70
2021/03/11 05:46:12;;;;;;;4.13;2.58;;;;;;;1.04;62.36;95238.97;5104657;28;20190;-73
2021/03/11 05:48:40;;;;;;;4.25;2.95;;;;;;;1.39;62.94;95254.44;5109309;28;20294;-72
2021/03/11 05:51:08;;;;;;;20.77;12.63;;;;;;;1.29;62.65;95254.81;5110572;28;20688;-74
2021/03/11 05:53:38;;;;;;;28.40;16.25;;;;;;;1.35;63.47;95259.19;5111903;28;20205;-70
2021/03/11 05:56:06;;;;;;;53.30;35.47;;;;;;;1.31;64.28;95270.09;5111191;28;20606;-74
2021/03/11 05:58:33;;;;;;;4.35;3.08;;;;;;;1.20;61.75;95275.78;5111660;28;20201;-73
2021/03/11 06:01:03;;;;;;;5.90;3.55;;;;;;;1.40;62.02;95277.53;5110621;28;20668;-68
2021/03/11 06:03:33;;;;;;;3.85;2.80;;;;;;;1.27;62.51;95271.47;5110972;28;20653;-73
2021/03/11 06:06:00;;;;;;;5.78;3.38;;;;;;;1.40;62.17;95277.53;5110608;28;22030;-73
2021/03/11 06:08:27;;;;;;;4.43;2.97;;;;;;;1.39;61.83;95290.59;5111336;28;20191;-74
2021/03/11 06:10:55;;;;;;;5.28;3.25;;;;;;;1.40;62.65;95281.88;5110602;28;20190;-71
2021/03/11 06:13:25;;;;;;;6.70;4.72;;;;;;;1.25;63.24;95294.09;5111138;28;20274;-75
2021/03/11 06:16:06;;;;;;;36.50;23.77;;;;;;;1.39;64.14;95308.66;5110418;28;20293;-72
2021/03/11 06:18:35;;;;;;;20.38;10.63;;;;;;;1.32;63.93;95316.38;5111015;28;20202;-72
2021/03/11 06:21:03;;;;;;;7.13;4.80;;;;;;;1.32;63.58;95313.00;5110523;28;20569;-72
2021/03/11 06:23:30;;;;;;;6.38;4.00;;;;;;;1.52;64.17;95329.41;5111019;28;20675;-73
2021/03/11 06:25:57;;;;;;;6.72;4.45;;;;;;;1.47;62.88;95318.88;5110495;27;20190;-73
2021/03/11 06:28:46;;;;;;;8.13;4.20;;;;;;;1.57;62.34;95338.19;5110851;28;20277;-74
2021/03/11 06:31:29;;;;;;;8.27;5.03;;;;;;;1.52;62.54;95337.97;5110842;28;20198;-73
2021/03/11 06:33:58;;;;;;;9.30;5.57;;;;;;;1.59;63.09;95350.91;5111129;28;20214;-74
2021/03/11 06:36:27;;;;;;;9.20;6.18;;;;;;;1.50;64.48;95349.47;5110638;28;20213;-74
2021/03/11 06:38:57;;;;;;;8.57;5.28;;;;;;;1.67;63.94;95366.28;5110563;28;20197;-73
2021/03/11 06:41:24;;;;;;;7.80;5.63;;;;;;;1.64;64.39;95371.81;5110650;28;20656;-73
2021/03/11 06:43:51;;;;;;;9.93;5.80;;;;;;;1.59;62.94;95369.78;5111085;28;20231;-73
2021/03/11 06:46:19;;;;;;;7.43;5.18;;;;;;;1.70;63.14;95373.63;5110654;28;20190;-74
2021/03/11 06:48:47;;;;;;;7.57;4.95;;;;;;;1.53;63.13;95367.19;5110817;28;20208;-73
2021/03/11 06:51:21;;;;;;;9.10;5.60;;;;;;;1.40;63.80;95374.81;5110681;28;20601;-73
2021/03/11 06:53:55;;;;;;;8.15;5.10;;;;;;;1.47;64.17;95376.47;5110911;28;20221;-74
2021/03/11 06:56:22;;;;;;;9.35;5.28;;;;;;;1.58;64.27;95372.56;5110206;28;20654;-74
2021/03/11 06:58:55;;;;;;;9.48;5.78;;;;;;;1.57;63.76;95386.50;5110803;28;20643;-73
2021/03/11 07:01:23;;;;;;;7.95;5.63;;;;;;;1.71;63.34;95401.09;5110293;28;20191;-74
2021/03/11 07:03:50;;;;;;;10.00;6.00;;;;;;;1.67;63.90;95407.59;5111251;28;20297;-74
2021/03/11 07:06:27;;;;;;;8.93;6.35;;;;;;;1.50;63.10;95411.44;5112300;28;21000;-73
2021/03/11 07:08:57;;;;;;;11.65;7.28;;;;;;;1.41;64.44;95402.22;5109360;28;20198;-75
2021/03/11 07:11:25;;;;;;;10.73;7.05;;;;;;;1.71;64.10;95401.09;5110374;28;20626;-73
2021/03/11 07:13:52;;;;;;;9.82;6.28;;;;;;;1.88;63.63;95399.81;5110916;28;20214;-74
2021/03/11 07:16:24;;;;;;;8.95;6.10;;;;;;;2.03;63.15;95397.88;5110267;28;20198;-73
2021/03/11 07:19:16;;;;;;;5.57;3.85;;;;;;;2.12;62.68;95390.81;5110700;28;20571;-74
2021/03/11 07:21:45;;;;;;;5.18;3.50;;;;;;;2.12;62.52;95412.25;5110309;28;20198;-74
2021/03/11 07:24:30;;;;;;;3.47;2.78;;;;;;;2.14;62.68;95412.88;5110302;28;20205;-74
2021/03/11 07:26:57;;;;;;;3.67;2.45;;;;;;;2.15;61.90;95424.81;5110168;28;20206;-73
2021/03/11 07:29:24;;;;;;;3.95;3.08;;;;;;;2.10;61.97;95424.56;5109870;28;20235;-74
2021/03/11 07:31:59;;;;;;;4.35;3.13;;;;;;;2.22;62.02;95427.44;5110649;28;20210;-74
2021/03/11 07:34:32;;;;;;;5.90;4.22;;;;;;;2.30;61.31;95435.81;5110015;28;20214;-73
2021/03/11 07:37:00;;;;;;;7.88;4.85;;;;;;;2.11;61.81;95423.59;5110328;28;20656;-75
2021/03/11 07:39:37;;;;;;;6.72;4.40;;;;;;;1.96;61.86;95443.56;5109912;28;20668;-73
2021/03/11 07:42:06;;;;;;;9.70;5.82;;;;;;;2.03;61.90;95439.25;5111262;28;20590;-73
2021/03/11 07:44:34;;;;;;;12.38;7.05;;;;;;;2.03;61.75;95447.00;5112712;28;20190;-73
2021/03/11 07:47:03;;;;;;;14.20;7.20;;;;;;;1.86;63.09;95448.28;5114058;28;20191;-73
2021/03/11 07:49:30;;;;;;;10.63;6.18;;;;;;;1.88;62.62;95448.91;5110330;28;20190;-74
2021/03/11 07:51:58;;;;;;;13.35;6.60;;;;;;;1.97;62.67;95455.53;5114077;28;20652;-73
2021/03/11 07:54:25;;;;;;;9.38;5.63;;;;;;;1.94;62.31;95461.06;5114027;28;20576;-73
2021/03/11 07:56:52;;;;;;;9.63;5.97;;;;;;;2.08;61.80;95463.53;5114602;28;20179;-73
2021/03/11 07:59:20;;;;;;;11.82;6.50;;;;;;;2.10;62.10;95468.50;5114688;28;20587;-76
2021/03/11 08:01:53;;;;;;;10.88;6.85;;;;;;;2.17;61.16;95466.78;5114165;28;20583;-73
2021/03/11 08:04:23;;;;;;;10.20;6.28;;;;;;;2.11;61.34;95457.19;5114027;28;20178;-73
2021/03/11 08:06:49;;;;;;;10.75;6.00;;;;;;;2.24;61.70;95477.97;5113801;28;20230;-74
2021/03/11 08:09:38;;;;;;;9.57;5.47;;;;;;;2.42;60.91;95474.88;5114058;28;20580;-74
2021/03/11 08:12:38;;;;;;;10.07;6.10;;;;;;;2.34;60.88;95486.16;5113660;28;20299;-74
2021/03/11 08:15:14;;;;;;;18.42;10.00;;;;;;;2.43;59.85;95489.41;5090894;28;20230;-73
2021/03/11 08:17:44;;;;;;;16.33;8.70;;;;;;;2.54;60.18;95478.50;5113952;28;20190;-73
2021/03/11 08:20:20;;;;;;;18.17;9.27;;;;;;;2.79;60.21;95488.19;5113923;28;20202;-73
2021/03/11 08:22:53;;;;;;;14.88;7.95;;;;;;;2.90;59.46;95490.22;5114015;28;20679;-72
2021/03/11 08:25:25;;;;;;;9.10;5.95;;;;;;;2.80;59.23;95489.78;5113691;28;20608;-73
2021/03/11 08:27:52;;;;;;;10.13;5.97;;;;;;;2.81;59.02;95488.78;5113515;28;20284;-72
2021/03/11 08:30:37;;;;;;;13.55;6.82;;;;;;;3.01;58.69;95499.25;5113263;28;20202;-71
2021/03/11 08:33:11;;;;;;;12.65;6.07;;;;;;;2.98;58.28;95495.25;5113687;28;20258;-72
2021/03/11 08:35:40;;;;;;;11.68;5.93;;;;;;;2.93;58.55;95495.03;5113268;28;20240;-71
2021/03/11 08:38:21;;;;;;;8.30;4.93;;;;;;;3.02;56.88;95493.06;5113375;28;20175;-72
2021/03/11 08:41:08;;;;;;;9.85;5.88;;;;;;;3.23;57.86;95499.91;5112846;28;20280;-72
2021/03/11 08:43:41;;;;;;;8.27;5.07;;;;;;;3.22;58.05;95516.41;5113872;28;20247;-72
2021/03/11 08:46:13;;;;;;;4.68;3.70;;;;;;;3.14;56.33;95506.25;5113050;28;20194;-72
2021/03/11 08:48:41;;;;;;;7.25;5.05;;;;;;;3.06;56.77;95495.09;5113346;28;20281;-72
2021/03/11 08:51:17;;;;;;;7.13;4.82;;;;;;;3.28;57.11;95502.69;5112511;28;20290;-72
2021/03/11 08:53:50;;;;;;;7.22;4.80;;;;;;;3.49;57.01;95502.53;5113208;28;20267;-71
2021/03/11 08:56:19;;;;;;;6.00;4.40;;;;;;;3.36;55.14;95510.31;5112873;28;20564;-71
2021/03/11 08:59:12;;;;;;;6.13;4.63;;;;;;;3.14;54.80;95508.84;5113096;28;20209;-72
2021/03/11 09:01:52;;;;;;;7.65;4.72;;;;;;;2.89;55.02;95511.94;5111994;28;20937;-71
2021/03/11 09:04:20;;;;;;;5.85;4.78;;;;;;;2.98;54.44;95513.38;5112467;28;20251;-70
2021/03/11 09:06:49;;;;;;;8.35;5.15;;;;;;;3.32;55.74;95511.69;5112510;28;20218;-70
2021/03/11 09:09:30;;;;;;;6.38;4.85;;;;;;;3.54;55.87;95513.13;5112484;28;20273;-71
2021/03/11 09:11:57;;;;;;;6.65;5.30;;;;;;;3.74;55.95;95525.09;5113242;28;20231;-71
2021/03/11 09:14:25;;;;;;;11.60;8.25;;;;;;;3.77;55.92;95518.72;5112005;28;20294;-70
2021/03/11 09:16:52;;;;;;;6.32;4.90;;;;;;;3.81;55.15;95535.50;5112421;28;20217;-70
2021/03/11 09:19:20;;;;;;;6.75;4.90;;;;;;;3.68;54.28;95527.69;5112246;28;20198;-71
2021/03/11 09:21:46;;;;;;;8.45;5.95;;;;;;;3.66;56.20;95532.28;5112405;28;20574;-71
2021/03/11 09:24:19;;;;;;;11.70;8.15;;;;;;;3.42;55.57;95535.41;5112893;28;20205;-71
2021/03/11 09:26:47;;;;;;;11.73;8.50;;;;;;;3.31;56.46;95528.19;5113496;28;20588;-70
2021/03/11 09:29:15;;;;;;;14.15;9.18;;;;;;;3.39;57.28;95538.41;5115565;28;20190;-70
2021/03/11 09:31:47;;;;;;;13.13;8.52;;;;;;;3.57;57.27;95541.22;5112498;28;20759;-71
2021/03/11 09:34:15;;;;;;;10.88;8.32;;;;;;;3.57;57.54;95539.44;5110871;28;20607;-71
2021/03/11 09:36:47;;;;;;;12.13;7.85;;;;;;;3.60;56.63;95531.25;5111978;28;20195;-70
2021/03/11 09:39:14;;;;;;;14.23;8.20;;;;;;;3.80;56.87;95544.25;5112258;28;20255;-69
2021/03/11 09:41:41;;;;;;;11.25;7.90;;;;;;;3.71;56.09;95542.84;5111614;28;20672;-71
2021/03/11 09:44:08;;;;;;;11.75;8.45;;;;;;;3.67;57.35;95533.84;5112003;27;20194;-71
2021/03/11 09:46:35;;;;;;;11.23;7.60;;;;;;;3.76;57.27;95541.25;5111549;28;20198;-70
2021/03/11 09:49:02;;;;;;;14.70;8.90;;;;;;;3.71;58.02;95548.03;5111601;28;20205;-71
2021/03/11 09:51:30;;;;;;;11.52;8.57;;;;;;;3.53;58.10;95542.59;5111130;28;20198;-70
2021/03/11 09:54:03;;;;;;;12.18;8.60;;;;;;;3.48;57.48;95539.81;5111509;28;20206;-70
2021/03/11 09:56:38;;;;;;;15.02;9.45;;;;;;;3.57;56.74;95551.59;5111133;28;20202;-69
2021/03/11 09:59:06;;;;;;;14.32;9.45;;;;;;;3.72;57.13;95558.19;5111678;28;20190;-71
2021/03/11 10:01:38;;;;;;;11.55;8.02;;;;;;;3.63;57.34;95548.22;5111142;28;20194;-70
2021/03/11 10:04:16;;;;;;;9.70;6.82;;;;;;;3.86;56.45;95546.06;5111398;28;20202;-70
2021/03/11 10:06:53;;;;;;;5.40;4.47;;;;;;;3.81;56.76;95561.41;5111374;28;20219;-71
2021/03/11 10:09:20;;;;;;;4.28;3.78;;;;;;;3.33;54.89;95562.47;5111276;28;20279;-70
2021/03/11 10:11:49;;;;;;;4.40;3.75;;;;;;;3.40;55.35;95555.53;5111192;28;20193;-70
2021/03/11 10:14:18;;;;;;;6.32;4.60;;;;;;;3.32;55.86;95560.91;5110425;28;20226;-70
2021/03/11 10:16:46;;;;;;;5.03;4.18;;;;;;;3.23;54.98;95567.25;5111411;28;20617;-70
2021/03/11 10:19:18;;;;;;;6.40;4.60;;;;;;;2.94;54.78;95566.50;5111326;28;20195;-71
2021/03/11 10:21:50;;;;;;;8.38;5.38;;;;;;;2.70;55.53;95576.53;5111176;28;20210;-70
2021/03/11 10:24:42;;;;;;;7.78;5.45;;;;;;;3.00;54.98;95573.50;5111148;28;20281;-71
2021/03/11 10:27:28;;;;;;;9.90;5.60;;;;;;;2.83;57.00;95574.00;5110964;28;20197;-70
2021/03/11 10:30:10;;;;;;;8.27;5.72;;;;;;;3.25;56.63;95580.78;5110972;28;20226;-70
2021/03/11 10:32:41;;;;;;;5.88;4.70;;;;;;;3.24;55.96;95579.19;5111089;28;20229;-70
2021/03/11 10:35:11;;;;;;;15.52;10.48;;;;;;;3.44;56.13;95585.22;5110692;28;20307;-69
2021/03/11 10:37:39;;;;;;;11.52;5.45;;;;;;;3.18;56.00;95591.09;5110636;28;20563;-70
2021/03/11 10:40:09;;;;;;;11.70;5.82;;;;;;;3.34;56.31;95600.34;5110354;28;20233;-71
2021/03/11 10:42:39;;;;;;;10.85;7.35;;;;;;;3.39;57.01;95608.34;5110807;28;20198;-69
2021/03/11 10:45:07;;;;;;;16.17;8.93;;;;;;;2.94;57.52;95610.50;5110571;28;20190;-70
2021/03/11 10:47:33;;;;;;;12.98;8.27;;;;;;;2.82;57.94;95613.81;5109588;28;20511;-69
2021/03/11 10:50:00;;;;;;;207.15;133.18;;;;;;;2.79;58.53;95614.22;5110383;28;20206;-70
2021/03/11 10:52:27;;;;;;;11.30;7.88;;;;;;;2.60;59.30;95618.25;5111114;28;20197;-72
2021/03/11 10:54:53;;;;;;;8.20;6.15;;;;;;;2.48;58.20;95617.16;5110674;28;20210;-69
2021/03/11 10:57:21;;;;;;;10.52;7.15;;;;;;;2.65;58.43;95607.34;5110901;28;20187;-70
2021/03/11 10:59:58;;;;;;;8.02;6.03;;;;;;;2.62;58.80;95615.47;5110416;28;20205;-71
2021/03/11 11:02:27;;;;;;;12.25;7.88;;;;;;;2.58;58.32;95622.00;5109180;28;20205;-71
2021/03/11 11:04:56;;;;;;;11.00;6.68;;;;;;;2.67;59.37;95626.88;5110209;28;20282;-69
2021/03/11 11:07:23;;;;;;;6.32;4.90;;;;;;;2.68;57.82;95630.25;5110529;28;20202;-70
2021/03/11 11:09:50;;;;;;;8.77;5.47;;;;;;;2.81;57.86;95628.53;5111357;28;20194;-70
2021/03/11 11:12:18;;;;;;;12.52;7.32;;;;;;;2.99;57.66;95612.53;5111400;28;20195;-70
2021/03/11 11:14:46;;;;;;;11.27;6.80;;;;;;;3.10;57.79;95615.38;5112787;28;20220;-73
2021/03/11 11:17:14;;;;;;;11.55;7.22;;;;;;;3.22;57.02;95617.41;5112836;28;20202;-70
2021/03/11 11:19:41;;;;;;;9.55;6.43;;;;;;;3.23;57.49;95612.03;5111306;28;20202;-71
2021/03/11 11:22:09;;;;;;;9.05;6.43;;;;;;;3.26;57.04;95613.44;5111714;28;20197;-70
2021/03/11 11:24:40;;;;;;;9.20;6.13;;;;;;;3.32;56.44;95604.94;5111601;28;20193;-70
2021/03/11 11:27:10;;;;;;;7.78;5.38;;;;;;;3.17;57.22;95606.84;5114822;28;20275;-74
2021/03/11 11:29:37;;;;;;;6.97;5.30;;;;;;;3.31;57.38;95616.25;5114535;28;20198;-70
2021/03/11 11:32:04;;;;;;;9.77;6.53;;;;;;;3.40;57.04;95610.72;5115255;28;20202;-70
2021/03/11 11:34:30;;;;;;;15.43;8.88;;;;;;;3.48;57.00;95609.75;5115197;28;20222;-70
2021/03/11 11:36:57;;;;;;;13.93;8.02;;;;;;;3.58;57.13;95598.03;5116016;28;20225;-70
2021/03/11 11:39:23;;;;;;;11.52;7.00;;;;;;;3.75;56.66;95601.88;5115129;28;20216;-70
2021/03/11 11:41:51;;;;;;;11.80;5.50;;;;;;;3.81;55.98;95590.69;5114949;28;20182;-70
2021/03/11 11:44:18;;;;;;;11.70;8.13;;;;;;;3.85;55.84;95583.34;5114061;28;20187;-71
2021/03/11 11:46:45;;;;;;;13.07;8.52;;;;;;;3.85;56.21;95591.13;5114448;28;20199;-69
2021/03/11 11:49:11;;;;;;;11.13;7.30;;;;;;;3.96;55.74;95582.75;5114041;28;20206;-70